createdAt,value
2019-06-07T00:00:47.876Z,20.78
2019-06-07T00:03:26.634Z,20.84
2019-06-07T00:05:45.287Z,20.86
2019-06-07T00:08:22.586Z,20.86
2019-06-07T00:10:42.880Z,20.88
2019-06-07T00:13:12.877Z,20.92
2019-06-07T00:15:40.390Z,20.96
2019-06-07T00:18:11.126Z,20.92
2019-06-07T00:20:37.692Z,20.84
2019-06-07T00:23:05.412Z,20.81
2019-06-07T00:25:33.103Z,20.67
2019-06-07T00:28:00.856Z,20.54
2019-06-07T00:30:42.378Z,20.53
2019-06-07T00:32:58.869Z,20.57
2019-06-07T00:35:26.659Z,20.53
2019-06-07T00:37:54.396Z,20.56
2019-06-07T00:40:31.524Z,20.59
2019-06-07T00:42:52.410Z,20.54
2019-06-07T00:45:24.650Z,20.54
2019-06-07T00:47:52.553Z,20.43
2019-06-07T00:50:23.964Z,20.38
2019-06-07T00:55:23.428Z,20.26
2019-06-07T00:57:50.325Z,20.25
2019-06-07T01:00:22.363Z,20.25
2019-06-07T01:02:49.738Z,20.19
2019-06-07T01:05:22.461Z,20.20
2019-06-07T01:07:47.215Z,20.24
2019-06-07T01:10:21.164Z,20.19
2019-06-07T01:12:45.212Z,20.19
2019-06-07T01:15:16.211Z,20.13
2019-06-07T01:18:32.429Z,20.11
2019-06-07T01:20:14.246Z,20.07
2019-06-07T01:22:42.141Z,20.07
2019-06-07T01:25:09.994Z,20.10
2019-06-07T01:27:37.865Z,20.11
2019-06-07T01:30:07.779Z,20.03
2019-06-07T01:32:35.435Z,20.01
2019-06-07T01:35:03.573Z,19.97
2019-06-07T01:37:31.248Z,20.05
2019-06-07T01:39:59.012Z,20.06
2019-06-07T01:42:29.449Z,19.99
2019-06-07T01:44:56.491Z,19.89
2019-06-07T01:47:25.602Z,19.80
2019-06-07T01:49:53.817Z,19.87
2019-06-07T01:52:23.542Z,19.90
2019-06-07T01:54:57.883Z,19.98
2019-06-07T01:57:38.343Z,19.99
2019-06-07T01:59:50.586Z,20.01
2019-06-07T02:02:20.051Z,20.01
2019-06-07T02:04:48.175Z,19.94
2019-06-07T02:07:15.948Z,19.88
2019-06-07T02:09:43.671Z,19.84
2019-06-07T02:12:25.587Z,19.86
2019-06-07T02:14:40.883Z,19.89
2019-06-07T02:17:08.698Z,19.96
2019-06-07T02:19:36.348Z,19.92
2019-06-07T02:22:04.064Z,19.80
2019-06-07T02:24:35.307Z,19.82
2019-06-07T02:27:01.565Z,19.62
2019-06-07T02:29:33.060Z,19.62
2019-06-07T02:32:00.173Z,19.54
2019-06-07T02:34:34.816Z,19.59
2019-06-07T02:36:57.709Z,19.54
2019-06-07T02:39:28.198Z,19.57
2019-06-07T02:41:55.133Z,19.46
2019-06-07T02:44:24.070Z,19.39
2019-06-07T02:46:52.917Z,19.18
2019-06-07T02:49:24.174Z,18.96
2019-06-07T02:51:50.887Z,18.91
2019-06-07T02:54:18.611Z,18.76
2019-06-07T02:56:58.159Z,18.70
2019-06-07T02:59:17.967Z,18.72
2019-06-07T03:01:45.729Z,18.76
2019-06-07T03:04:14.652Z,18.67
2019-06-07T03:06:44.041Z,18.79
2019-06-07T03:09:12.076Z,18.84
2019-06-07T03:11:42.333Z,18.92
2019-06-07T03:14:11.775Z,18.91
2019-06-07T03:16:47.357Z,19.04
2019-06-07T03:19:22.792Z,19.13
2019-06-07T03:21:52.521Z,19.25
2019-06-07T03:24:23.209Z,19.07
2019-06-07T03:29:21.328Z,18.93
2019-06-07T03:31:49.077Z,18.99
2019-06-07T03:34:16.814Z,19.00
2019-06-07T03:36:44.557Z,19.09
2019-06-07T03:39:12.270Z,19.06
2019-06-07T03:41:46.332Z,19.01
2019-06-07T03:44:09.594Z,18.92
2019-06-07T03:46:41.184Z,18.74
2019-06-07T03:49:08.195Z,18.60
2019-06-07T03:51:39.679Z,18.57
2019-06-07T03:54:05.607Z,18.53
2019-06-07T03:56:35.348Z,18.51
2019-06-07T03:59:03.377Z,18.45
2019-06-07T04:01:32.349Z,18.50
2019-06-07T04:04:00.671Z,18.59
2019-06-07T04:06:30.881Z,18.67
2019-06-07T04:08:58.050Z,18.59
2019-06-07T04:11:25.757Z,18.51
2019-06-07T04:13:53.687Z,18.35
2019-06-07T04:16:21.524Z,18.16
2019-06-07T04:18:49.218Z,18.17
2019-06-07T04:21:16.953Z,18.12
2019-06-07T04:23:45.674Z,18.04
2019-06-07T04:26:14.922Z,18.08
2019-06-07T04:29:31.083Z,18.14
2019-06-07T04:31:12.429Z,18.23
2019-06-07T04:33:43.530Z,18.25
2019-06-07T04:36:10.745Z,18.28
2019-06-07T04:38:42.600Z,18.23
2019-06-07T04:41:12.786Z,18.09
2019-06-07T04:43:42.839Z,18.16
2019-06-07T04:46:12.108Z,18.23
2019-06-07T04:48:43.735Z,18.20
2019-06-07T04:51:16.792Z,18.28
2019-06-07T04:53:44.613Z,18.30
2019-06-07T04:56:12.320Z,18.16
2019-06-07T04:58:41.347Z,18.23
2019-06-07T05:01:26.225Z,18.23
2019-06-07T05:03:43.885Z,18.28
2019-06-07T05:06:08.856Z,18.29
2019-06-07T05:08:40.578Z,18.29
2019-06-07T05:11:06.186Z,18.29
2019-06-07T05:13:37.855Z,18.24
2019-06-07T05:16:03.617Z,18.11
2019-06-07T05:18:33.702Z,18.08
2019-06-07T05:21:00.905Z,18.12
2019-06-07T05:24:04.378Z,18.17
2019-06-07T05:25:58.346Z,18.10
2019-06-07T05:28:26.045Z,18.06
2019-06-07T05:31:05.268Z,18.08
2019-06-07T05:33:23.879Z,18.12
2019-06-07T05:35:51.636Z,18.08
2019-06-07T05:38:19.369Z,18.17
2019-06-07T05:40:48.659Z,18.27
2019-06-07T05:43:25.241Z,18.33
2019-06-07T05:45:53.232Z,18.41
2019-06-07T05:48:21.383Z,18.37
2019-06-07T05:50:56.474Z,18.21
2019-06-07T05:53:27.195Z,18.16
2019-06-07T05:55:54.875Z,18.09
2019-06-07T05:58:22.609Z,18.06
2019-06-07T06:00:51.051Z,18.01
2019-06-07T06:03:19.132Z,18.05
2019-06-07T06:05:54.569Z,18.05
2019-06-07T06:08:16.755Z,18.03
2019-06-07T06:10:48.008Z,18.06
2019-06-07T06:13:14.407Z,17.95
2019-06-07T06:15:58.532Z,17.85
2019-06-07T06:18:12.112Z,17.93
2019-06-07T06:21:05.336Z,17.97
2019-06-07T06:23:09.667Z,17.96
2019-06-07T06:25:40.829Z,17.96
2019-06-07T06:28:12.286Z,18.07
2019-06-07T06:30:38.137Z,18.20
2019-06-07T06:33:06.205Z,18.34
2019-06-07T06:35:33.925Z,18.32
2019-06-07T06:38:01.790Z,18.51
2019-06-07T06:40:29.484Z,18.67
2019-06-07T06:42:57.238Z,18.76
2019-06-07T06:45:25.261Z,18.87
2019-06-07T06:47:52.979Z,18.76
2019-06-07T06:50:20.927Z,18.88
2019-06-07T06:52:54.056Z,18.70
2019-06-07T06:55:21.165Z,18.74
2019-06-07T06:57:51.191Z,18.82
2019-06-07T07:00:43.030Z,18.81
2019-06-07T07:03:39.574Z,18.79
2019-06-07T07:05:25.386Z,18.99
2019-06-07T07:07:53.320Z,19.03
2019-06-07T07:10:36.373Z,18.97
2019-06-07T07:13:05.544Z,19.10
2019-06-07T07:15:35.651Z,19.30
2019-06-07T07:18:08.869Z,19.11
2019-06-07T07:20:35.934Z,19.12
2019-06-07T07:23:04.086Z,19.06
2019-06-07T07:25:32.103Z,19.06
2019-06-07T07:27:59.911Z,19.28
2019-06-07T07:30:59.301Z,19.38
2019-06-07T07:34:18.660Z,19.30
2019-06-07T07:36:22.698Z,19.27
2019-06-07T07:38:26.330Z,19.24
2019-06-07T07:41:06.679Z,19.32
2019-06-07T07:43:24.280Z,19.37
2019-06-07T07:45:59.376Z,19.43
2019-06-07T07:48:22.325Z,19.41
2019-06-07T07:50:54.428Z,19.40
2019-06-07T07:53:19.835Z,19.42
2019-06-07T07:55:50.461Z,19.39
2019-06-07T07:58:17.338Z,19.41
2019-06-07T08:01:04.747Z,19.45
2019-06-07T08:03:15.066Z,19.53
2019-06-07T08:05:44.938Z,19.57
2019-06-07T08:08:12.544Z,19.68
2019-06-07T08:10:40.356Z,19.77
2019-06-07T08:13:24.806Z,19.82
2019-06-07T08:15:38.832Z,19.91
2019-06-07T08:18:06.749Z,20.02
2019-06-07T08:20:34.592Z,20.17
2019-06-07T08:23:02.260Z,20.24
2019-06-07T08:25:30.107Z,20.28
2019-06-07T08:27:59.138Z,20.29
2019-06-07T08:33:12.064Z,20.30
2019-06-07T08:38:22.147Z,20.23
2019-06-07T08:40:26.309Z,20.28
2019-06-07T08:43:10.638Z,20.36
2019-06-07T08:45:23.733Z,20.50
2019-06-07T08:47:57.166Z,20.40
2019-06-07T08:50:23.130Z,20.47
2019-06-07T08:52:54.783Z,20.50
2019-06-07T08:55:20.771Z,20.36
2019-06-07T08:57:48.452Z,20.39
2019-06-07T09:00:42.992Z,20.47
2019-06-07T09:02:48.185Z,20.49
2019-06-07T09:05:17.391Z,20.37
2019-06-07T09:07:45.057Z,20.43
2019-06-07T09:10:15.234Z,20.49
2019-06-07T09:12:43.362Z,20.58
2019-06-07T09:15:22.659Z,20.68
2019-06-07T09:18:29.579Z,20.80
2019-06-07T09:20:35.086Z,21.09
2019-06-07T09:22:43.948Z,21.21
2019-06-07T09:25:21.155Z,21.27
2019-06-07T09:27:42.865Z,21.44
2019-06-07T09:30:18.360Z,21.71
2019-06-07T09:32:41.165Z,21.83
2019-06-07T09:35:16.844Z,21.86
2019-06-07T09:38:04.266Z,21.97
2019-06-07T09:40:24.840Z,21.98
2019-06-07T09:42:40.246Z,22.33
2019-06-07T09:45:11.711Z,22.78
2019-06-07T09:47:37.832Z,23.01
2019-06-07T09:50:11.837Z,23.17
2019-06-07T09:52:57.335Z,22.81
2019-06-07T09:55:19.637Z,22.82
2019-06-07T09:57:35.963Z,22.81
2019-06-07T10:00:38.216Z,22.70
2019-06-07T10:02:37.642Z,22.17
2019-06-07T10:05:12.189Z,22.23
2019-06-07T10:07:35.374Z,22.27
2019-06-07T10:10:22.343Z,22.26
2019-06-07T10:12:33.310Z,22.41
2019-06-07T10:15:01.070Z,22.48
2019-06-07T10:17:28.920Z,22.41
2019-06-07T10:19:56.723Z,22.48
2019-06-07T10:22:24.572Z,22.41
2019-06-07T10:24:52.429Z,22.42
2019-06-07T10:27:20.989Z,22.44
2019-06-07T10:29:49.673Z,22.53
2019-06-07T10:32:17.593Z,22.47
2019-06-07T10:34:45.859Z,22.53
2019-06-07T10:37:15.610Z,22.53
2019-06-07T10:39:48.604Z,22.61
2019-06-07T10:42:13.106Z,22.70
2019-06-07T10:44:40.816Z,22.85
2019-06-07T10:47:10.005Z,22.95
2019-06-07T10:49:37.886Z,22.98
2019-06-07T10:52:07.884Z,23.03
2019-06-07T10:54:35.448Z,23.15
2019-06-07T10:57:04.751Z,23.21
2019-06-07T10:59:32.987Z,23.36
2019-06-07T11:02:01.505Z,23.44
2019-06-07T11:04:29.167Z,23.50
2019-06-07T11:06:57.032Z,23.64
2019-06-07T11:09:24.840Z,23.66
2019-06-07T11:11:52.587Z,23.69
2019-06-07T11:14:20.298Z,23.66
2019-06-07T11:16:48.056Z,23.87
2019-06-07T11:19:17.804Z,23.68
2019-06-07T11:21:45.478Z,23.72
2019-06-07T11:24:14.428Z,23.89
2019-06-07T11:26:42.345Z,24.02
2019-06-07T11:29:10.991Z,24.09
2019-06-07T11:31:39.247Z,24.04
2019-06-07T11:34:08.228Z,24.26
2019-06-07T11:36:36.120Z,24.17
2019-06-07T11:39:06.505Z,24.34
2019-06-07T11:41:34.259Z,24.43
2019-06-07T11:44:02.013Z,24.41
2019-06-07T11:46:29.825Z,24.35
2019-06-07T11:48:57.505Z,24.47
2019-06-07T11:51:25.395Z,24.49
2019-06-07T11:53:53.281Z,24.55
2019-06-07T11:56:20.961Z,24.61
2019-06-07T11:58:48.673Z,24.03
2019-06-07T12:01:18.503Z,24.22
2019-06-07T12:03:46.086Z,23.92
2019-06-07T12:06:14.639Z,24.17
2019-06-07T12:08:43.833Z,24.32
2019-06-07T12:11:12.195Z,24.36
2019-06-07T12:13:40.104Z,24.38
2019-06-07T12:16:09.046Z,24.26
2019-06-07T12:18:36.947Z,24.07
2019-06-07T12:21:04.742Z,24.29
2019-06-07T12:23:32.598Z,24.41
2019-06-07T12:26:00.301Z,24.56
2019-06-07T12:28:28.791Z,24.69
2019-06-07T12:30:57.110Z,24.64
2019-06-07T12:33:25.013Z,24.82
2019-06-07T12:35:52.724Z,25.09
2019-06-07T12:38:21.458Z,25.26
2019-06-07T12:40:57.729Z,25.02
2019-06-07T12:43:23.441Z,25.10
2019-06-07T12:45:51.596Z,25.20
2019-06-07T12:48:22.923Z,25.15
2019-06-07T12:50:49.275Z,25.28
2019-06-07T12:53:24.224Z,25.45
2019-06-07T12:55:48.643Z,25.56
2019-06-07T12:58:16.485Z,25.51
2019-06-07T13:00:44.270Z,25.65
2019-06-07T13:03:12.016Z,25.63
2019-06-07T13:05:39.779Z,25.58
2019-06-07T13:08:07.706Z,25.58
2019-06-07T13:10:35.718Z,25.73
2019-06-07T13:13:03.770Z,26.25
2019-06-07T13:15:31.447Z,26.50
2019-06-07T13:17:59.175Z,26.84
2019-06-07T13:20:28.784Z,27.16
2019-06-07T13:22:56.645Z,27.48
2019-06-07T13:25:35.007Z,27.65
2019-06-07T13:27:54.352Z,27.72
2019-06-07T13:30:23.512Z,28.26
2019-06-07T13:32:52.226Z,28.16
2019-06-07T13:35:22.111Z,28.44
2019-06-07T13:37:50.885Z,28.80
2019-06-07T13:40:19.813Z,28.27
2019-06-07T13:42:51.200Z,28.01
2019-06-07T13:45:20.042Z,27.80
2019-06-07T13:47:48.650Z,27.97
2019-06-07T13:50:17.594Z,28.12
2019-06-07T13:52:46.785Z,28.49
2019-06-07T13:55:15.517Z,28.63
2019-06-07T13:57:43.332Z,28.67
2019-06-07T14:00:11.614Z,28.53
2019-06-07T14:02:39.897Z,28.55
2019-06-07T14:05:08.542Z,28.52
2019-06-07T14:07:36.510Z,28.18
2019-06-07T14:10:05.320Z,28.21
2019-06-07T14:12:33.409Z,28.22
2019-06-07T14:15:01.173Z,28.23
2019-06-07T14:17:30.953Z,28.62
2019-06-07T14:19:59.764Z,29.22
2019-06-07T14:22:28.917Z,29.62
2019-06-07T14:24:56.951Z,30.04
2019-06-07T14:27:25.484Z,30.26
2019-06-07T14:29:53.248Z,30.42
2019-06-07T14:32:22.681Z,30.62
2019-06-07T14:34:52.605Z,30.74
2019-06-07T14:37:20.253Z,30.71
2019-06-07T14:39:47.988Z,30.27
2019-06-07T14:42:15.689Z,30.31
2019-06-07T14:44:46.128Z,30.52
2019-06-07T14:47:13.877Z,30.65
2019-06-07T14:49:41.662Z,30.50
2019-06-07T14:52:09.496Z,30.45
2019-06-07T14:54:39.246Z,29.71
2019-06-07T14:57:08.735Z,29.60
2019-06-07T14:59:36.631Z,29.82
2019-06-07T15:02:04.320Z,30.28
2019-06-07T15:04:32.867Z,30.36
2019-06-07T15:07:01.465Z,30.33
2019-06-07T15:09:31.038Z,30.48
2019-06-07T15:11:58.866Z,30.68
2019-06-07T15:14:27.327Z,30.69
2019-06-07T15:16:57.147Z,30.94
2019-06-07T15:19:26.495Z,31.00
2019-06-07T15:21:54.595Z,29.99
2019-06-07T15:24:22.475Z,30.48
2019-06-07T15:26:50.297Z,30.03
2019-06-07T15:29:18.276Z,30.35
2019-06-07T15:31:46.071Z,30.12
2019-06-07T15:34:13.882Z,30.30
2019-06-07T15:36:41.579Z,29.99
2019-06-07T15:39:09.376Z,29.80
2019-06-07T15:41:37.491Z,29.82
2019-06-07T15:44:05.521Z,30.12
2019-06-07T15:46:33.706Z,29.33
2019-06-07T15:49:01.763Z,29.86
2019-06-07T15:51:30.647Z,30.08
2019-06-07T15:53:58.784Z,30.09
2019-06-07T15:56:26.661Z,30.18
2019-06-07T15:58:54.554Z,30.18
2019-06-07T16:01:22.400Z,30.02
2019-06-07T16:03:50.249Z,29.79
2019-06-07T16:06:19.677Z,30.04
2019-06-07T16:09:15.870Z,30.08
2019-06-07T16:11:44.334Z,28.96
2019-06-07T16:14:12.218Z,29.21
2019-06-07T16:16:41.365Z,29.59
2019-06-07T16:19:09.336Z,29.68
2019-06-07T16:21:37.395Z,29.88
2019-06-07T16:24:05.589Z,29.96
2019-06-07T16:26:34.058Z,30.05
2019-06-07T16:29:02.373Z,30.04
2019-06-07T16:31:30.207Z,30.03
2019-06-07T16:33:57.943Z,30.09
2019-06-07T16:36:25.746Z,30.00
2019-06-07T16:38:53.434Z,29.63
2019-06-07T16:41:21.420Z,29.41
2019-06-07T16:43:49.126Z,29.53
2019-06-07T16:46:16.976Z,29.34
2019-06-07T16:48:45.103Z,29.25
2019-06-07T16:51:12.968Z,29.40
2019-06-07T16:53:40.779Z,29.47
2019-06-07T16:56:08.584Z,29.43
2019-06-07T16:58:37.738Z,29.47
2019-06-07T17:01:05.697Z,29.50
2019-06-07T17:03:33.524Z,29.48
2019-06-07T17:06:01.285Z,29.40
2019-06-07T17:08:29.023Z,29.44
2019-06-07T17:10:56.883Z,29.46
2019-06-07T17:13:33.285Z,29.40
2019-06-07T17:15:54.475Z,29.32
2019-06-07T17:18:22.292Z,29.17
2019-06-07T17:20:57.413Z,29.13
2019-06-07T17:23:25.239Z,29.09
2019-06-07T17:25:53.197Z,29.08
2019-06-07T17:28:20.964Z,28.94
2019-06-07T17:30:50.411Z,28.97
2019-06-07T17:33:18.689Z,28.91
2019-06-07T17:35:54.267Z,28.75
2019-06-07T17:38:29.524Z,28.70
2019-06-07T17:41:08.772Z,28.46
2019-06-07T17:43:50.529Z,28.56
2019-06-07T17:46:06.228Z,28.50
2019-06-07T17:48:33.921Z,28.52
2019-06-07T17:51:01.819Z,28.48
2019-06-07T17:53:30.597Z,28.39
2019-06-07T17:55:58.627Z,28.31
2019-06-07T17:58:27.486Z,28.13
2019-06-07T18:00:55.407Z,28.16
2019-06-07T18:03:23.229Z,28.02
2019-06-07T18:05:54.093Z,28.06
2019-06-07T18:08:23.985Z,28.09
2019-06-07T18:10:52.139Z,27.97
2019-06-07T18:13:20.562Z,27.90
2019-06-07T18:15:52.943Z,27.90
2019-06-07T18:18:18.253Z,27.78
2019-06-07T18:20:47.181Z,27.75
2019-06-07T18:23:15.409Z,27.74
2019-06-07T18:25:43.264Z,27.73
2019-06-07T18:28:11.227Z,27.69
2019-06-07T18:30:38.942Z,27.63
2019-06-07T18:33:06.908Z,27.61
2019-06-07T18:35:35.295Z,27.58
2019-06-07T18:38:03.342Z,27.52
2019-06-07T18:40:31.134Z,27.33
2019-06-07T18:42:59.571Z,27.31
2019-06-07T18:45:27.856Z,27.21
2019-06-07T18:47:55.807Z,27.16
2019-06-07T18:50:23.649Z,27.02
2019-06-07T18:52:52.608Z,26.97
2019-06-07T18:55:20.652Z,26.99
2019-06-07T18:57:48.404Z,26.92
2019-06-07T19:00:16.657Z,26.84
2019-06-07T19:02:44.395Z,26.80
2019-06-07T19:05:12.723Z,26.73
2019-06-07T19:07:40.979Z,26.58
2019-06-07T19:10:10.513Z,26.52
2019-06-07T19:12:38.633Z,26.50
2019-06-07T19:15:07.304Z,26.41
2019-06-07T19:17:35.144Z,26.42
2019-06-07T19:20:03.353Z,26.41
2019-06-07T19:22:31.118Z,26.36
2019-06-07T19:25:00.467Z,26.28
2019-06-07T19:27:28.559Z,26.18
2019-06-07T19:29:56.759Z,26.12
2019-06-07T19:32:24.899Z,25.99
2019-06-07T19:34:53.220Z,25.97
2019-06-07T19:37:21.172Z,25.94
2019-06-07T19:39:48.869Z,25.83
2019-06-07T19:42:16.588Z,25.69
2019-06-07T19:44:54.631Z,25.70
2019-06-07T19:47:13.915Z,25.70
2019-06-07T19:49:41.612Z,25.69
2019-06-07T19:52:09.807Z,25.52
2019-06-07T19:54:37.533Z,25.16
2019-06-07T19:57:05.687Z,25.08
2019-06-07T19:59:33.423Z,25.03
2019-06-07T20:02:02.093Z,24.96
2019-06-07T20:04:30.089Z,24.91
2019-06-07T20:06:58.237Z,24.84
2019-06-07T20:09:26.041Z,24.75
2019-06-07T20:11:54.507Z,24.69
2019-06-07T20:14:23.117Z,24.55
2019-06-07T20:16:51.230Z,24.41
2019-06-07T20:19:19.060Z,24.38
2019-06-07T20:21:46.746Z,24.29
2019-06-07T20:24:26.302Z,24.24
2019-06-07T20:26:47.116Z,24.18
2019-06-07T20:29:25.962Z,24.14
2019-06-07T20:31:44.727Z,24.10
2019-06-07T20:34:13.214Z,24.05
2019-06-07T20:36:40.985Z,23.99
2019-06-07T20:39:08.827Z,23.94
2019-06-07T20:41:37.268Z,23.88
2019-06-07T20:44:05.852Z,23.83
2019-06-07T20:46:33.730Z,23.79
2019-06-07T20:49:02.328Z,23.68
2019-06-07T20:51:30.125Z,23.62
2019-06-07T20:53:58.479Z,23.57
2019-06-07T20:56:26.268Z,23.46
2019-06-07T20:58:54.111Z,23.36
2019-06-07T21:01:22.227Z,23.31
2019-06-07T21:03:50.017Z,23.20
2019-06-07T21:06:17.925Z,23.14
2019-06-07T21:08:45.690Z,22.98
2019-06-07T21:11:13.599Z,22.86
2019-06-07T21:13:41.362Z,22.88
2019-06-07T21:16:10.334Z,22.88
2019-06-07T21:18:38.347Z,22.78
2019-06-07T21:21:06.459Z,22.68
2019-06-07T21:23:34.329Z,22.71
2019-06-07T21:26:03.052Z,22.64
2019-06-07T21:28:30.954Z,22.52
2019-06-07T21:30:58.943Z,22.24
2019-06-07T21:33:26.649Z,21.93
2019-06-07T21:35:54.495Z,22.02
2019-06-07T21:38:22.211Z,22.08
2019-06-07T21:40:50.009Z,22.15
2019-06-07T21:43:17.800Z,22.19
2019-06-07T21:45:45.652Z,22.24
2019-06-07T21:48:14.415Z,22.25
2019-06-07T21:50:42.502Z,22.26
2019-06-07T21:53:10.731Z,22.20
2019-06-07T21:55:38.615Z,22.20
2019-06-07T21:58:07.042Z,22.16
2019-06-07T22:01:14.220Z,22.12
2019-06-07T22:03:42.533Z,22.05
2019-06-07T22:06:11.768Z,22.02
2019-06-07T22:08:40.461Z,21.95
2019-06-07T22:11:08.352Z,21.81
2019-06-07T22:13:36.321Z,21.84
2019-06-07T22:16:04.193Z,21.76
2019-06-07T22:18:31.922Z,21.59
2019-06-07T22:20:59.678Z,21.59
2019-06-07T22:23:27.472Z,21.61
2019-06-07T22:25:55.281Z,21.60
2019-06-07T22:28:23.291Z,21.60
2019-06-07T22:30:51.057Z,21.61
2019-06-07T22:33:19.051Z,21.59
2019-06-07T22:35:46.947Z,21.57
2019-06-07T22:38:14.639Z,21.55
2019-06-07T22:40:42.436Z,21.52
2019-06-07T22:43:11.835Z,21.49
2019-06-07T22:45:39.841Z,21.45
2019-06-07T22:48:08.690Z,21.40
2019-06-07T22:50:36.708Z,21.37
2019-06-07T22:53:04.524Z,21.30
2019-06-07T22:55:32.380Z,21.18
2019-06-07T22:58:00.586Z,21.00
2019-06-07T23:00:29.852Z,20.91
2019-06-07T23:02:57.681Z,20.98
2019-06-07T23:05:26.283Z,21.02
2019-06-07T23:07:54.162Z,21.02
2019-06-07T23:10:22.139Z,21.02
2019-06-07T23:12:49.866Z,21.00
2019-06-07T23:15:19.354Z,20.95
2019-06-07T23:17:49.025Z,20.92
2019-06-07T23:20:18.066Z,20.90
2019-06-07T23:22:45.998Z,20.90
2019-06-07T23:25:18.884Z,20.86
2019-06-07T23:27:44.673Z,20.83
2019-06-07T23:30:14.649Z,20.80
2019-06-07T23:32:42.442Z,20.79
2019-06-07T23:35:11.009Z,20.73
2019-06-07T23:37:38.801Z,20.68
2019-06-07T23:40:07.136Z,20.62
2019-06-07T23:42:34.984Z,20.45
2019-06-07T23:45:05.567Z,20.42
2019-06-07T23:47:33.344Z,20.34
2019-06-07T23:50:01.053Z,20.29
2019-06-07T23:52:29.094Z,20.32
2019-06-07T23:54:56.813Z,20.26
2019-06-07T23:57:24.575Z,20.25
2019-06-07T23:59:52.287Z,20.22
